McHenry, Mississippi
Current Conditions -  °F | °C
As of 4:53 PM on Thursday 20 Nov 2014 (Local Time) from KGPT Reporting Station
Clear Clear  
Wind Chill: 15°   Ceiling: Unl
Heat Index: 15°   Visibility: 10mi
Dew Point:   Wind: 3mph
Humidity: 55%   Direction: 190°S
Pressure: 30.22"   Gusts: NA
Location:  30.71°N, 89.14°W
Report Text: KGPT 202253Z 19003KT 10SM CLR 15/06 A3022 RMK AO2 SLP232 T01500061
Loading
Personal Weather Stations






























Interactive Weather Map New forecast layout! Learn more

10-Day Weather Forecast

Advertisements
Track Severe Weather on mobile